Time;durP1;ratioP1;P1;durP2;ratioP2;P2;SDS_P1;SDS_P2;PMS_P1;PMS_P2;Temp;Humidity;BMP_temperature;BMP_pressure;BME280_temperature;BME280_humidity;BME280_pressure;Samples;Min_cycle;Max_cycle;Signal;HPM_P1;HPM_P2
2022/07/20 00:00:17;;;;;;;;;;;;;;;;;;1038444;28;4020;-50
2022/07/20 00:01:06;;;;;;;;;;;;;;;;;;1038256;28;4454;-53
2022/07/20 00:01:37;;;;;;;;;;;;;;;;;;1038514;28;1651;-51
2022/07/20 00:02:07;;;;;;;;;;;;;;;;;;1038361;28;4227;-50
2022/07/20 00:02:37;;;;;;;;;;;;;;;;;;1042027;28;1822;-52
2022/07/20 00:03:09;;;;;;;;;;;;;;;;;;1041920;28;3952;-51
2022/07/20 00:03:41;;;;;;;;;;;;;;;;;;1042433;28;1627;-50
2022/07/20 00:04:12;;;;;;;;;;;;;;;;;;1040862;28;4224;-51
2022/07/20 00:04:42;;;;;;;;;;;;;;;;;;1038757;28;1305;-50
2022/07/20 00:05:12;;;;;;;;;;;;;;;;;;1037307;28;3828;-49
2022/07/20 00:05:43;;;;;;;;;;;;;;;;;;1038613;28;2242;-53
2022/07/20 00:06:13;;;;;;;;;;;;;;;;;;1037658;28;3898;-48
2022/07/20 00:06:44;;;;;;;;;;;;;;;;;;1038641;28;1566;-48
2022/07/20 00:07:14;;;;;;;;;;;;;;;;;;1037542;28;4333;-49
2022/07/20 00:07:44;;;;;;;;;;;;;;;;;;1038596;28;1573;-51
2022/07/20 00:11:19;;;;;;;;;;;;;;;;;;1038084;28;3939;-50
2022/07/20 00:11:25;;;;;;;;;;;;;;;;;;1038095;28;3746;-49
2022/07/20 00:11:36;;;;;;;;;;;;;;;;;;1034683;28;3973;-55
2022/07/20 00:12:06;;;;;;;;;;;;;;;;;;1038732;28;4039;-48
2022/07/20 00:12:37;;;;;;;;;;;;;;;;;;1038067;28;1575;-52
2022/07/20 00:13:07;;;;;;;;;;;;;;;;;;1038465;28;4434;-50
2022/07/20 00:13:37;;;;;;;;;;;;;;;;;;1038175;28;2198;-54
2022/07/20 00:14:07;;;;;;;;;;;;;;;;;;1038558;28;4232;-51
2022/07/20 00:14:38;;;;;;;;;;;;;;;;;;1037688;28;1801;-52
2022/07/20 00:15:08;;;;;;;;;;;;;;;;;;1038370;28;3788;-49
2022/07/20 00:15:39;;;;;;;;;;;;;;;;;;1038182;28;1965;-51
2022/07/20 00:16:09;;;;;;;;;;;;;;;;;;1038506;28;4054;-53
2022/07/20 00:16:39;;;;;;;;;;;;;;;;;;1038042;28;1729;-49
2022/07/20 00:17:10;;;;;;;;;;;;;;;;;;1038239;28;3929;-50
2022/07/20 00:17:40;;;;;;;;;;;;;;;;;;1038195;28;1684;-50
2022/07/20 00:18:11;;;;;;;;;;;;;;;;;;1038160;28;4232;-53
2022/07/20 00:18:41;;;;;;;;;;;;;;;;;;1037476;28;1700;-55
2022/07/20 00:19:11;;;;;;;;;;;;;;;;;;1038050;28;3813;-50
2022/07/20 00:19:54;;;;;;;;;;;;;;;;;;1039685;28;1802;-54
2022/07/20 00:20:31;;;;;;;;;;;;;;;;;;1041915;28;4015;-51
2022/07/20 00:21:02;;;;;;;;;;;;;;;;;;1040706;28;3966;-50
2022/07/20 00:21:32;;;;;;;;;;;;;;;;;;1044464;28;1988;-49
2022/07/20 00:22:02;;;;;;;;;;;;;;;;;;1044491;28;4259;-49
2022/07/20 00:22:33;;;;;;;;;;;;;;;;;;1044355;28;1923;-50
2022/07/20 00:23:03;;;;;;;;;;;;;;;;;;1041832;28;3912;-51
2022/07/20 00:23:33;;;;;;;;;;;;;;;;;;1041954;28;1694;-50
2022/07/20 00:24:05;;;;;;;;;;;;;;;;;;1042384;28;3967;-54
2022/07/20 00:24:36;;;;;;;;;;;;;;;;;;1041916;28;1815;-49
2022/07/20 00:25:07;;;;;;;;;;;;;;;;;;1040824;28;4332;-50
2022/07/20 00:25:37;;;;;;;;;;;;;;;;;;1041278;28;1320;-50
2022/07/20 00:26:08;;;;;;;;;;;;;;;;;;1040358;28;3983;-49
2022/07/20 00:26:38;;;;;;;;;;;;;;;;;;1040831;28;1722;-51
2022/07/20 00:27:08;;;;;;;;;;;;;;;;;;1041535;28;4041;-52
2022/07/20 00:27:38;;;;;;;;;;;;;;;;;;1040825;28;1703;-53
2022/07/20 00:28:09;;;;;;;;;;;;;;;;;;1040545;28;3870;-55
2022/07/20 00:28:39;;;;;;;;;;;;;;;;;;1040581;28;1189;-49
2022/07/20 00:29:09;;;;;;;;;;;;;;;;;;1040870;28;4387;-52
2022/07/20 00:29:39;;;;;;;;;;;;;;;;;;1041978;28;2097;-49
2022/07/20 00:30:11;;;;;;;;;;;;;;;;;;1041833;28;3971;-52
2022/07/20 00:30:42;;;;;;;;;;;;;;;;;;1038170;28;1387;-52
2022/07/20 00:31:12;;;;;;;;;;;;;;;;;;1037835;28;3960;-50
2022/07/20 00:31:42;;;;;;;;;;;;;;;;;;1041939;28;1797;-52
2022/07/20 00:32:13;;;;;;;;;;;;;;;;;;1041929;28;3913;-49
2022/07/20 00:32:43;;;;;;;;;;;;;;;;;;1041038;28;1556;-52
2022/07/20 00:33:13;;;;;;;;;;;;;;;;;;1040041;28;3844;-49
2022/07/20 00:33:48;;;;;;;;;;;;;;;;;;1041293;28;1458;-50
2022/07/20 00:34:18;;;;;;;;;;;;;;;;;;1041705;28;4108;-49
2022/07/20 00:34:48;;;;;;;;;;;;;;;;;;1040524;28;1643;-51
2022/07/20 00:35:18;;;;;;;;;;;;;;;;;;1041344;28;4275;-50
2022/07/20 00:35:49;;;;;;;;;;;;;;;;;;1040975;28;1661;-52
2022/07/20 00:36:20;;;;;;;;;;;;;;;;;;1041538;28;4066;-49
2022/07/20 00:36:50;;;;;;;;;;;;;;;;;;1040665;28;1717;-52
2022/07/20 00:37:20;;;;;;;;;;;;;;;;;;1041576;28;3885;-49
2022/07/20 00:37:50;;;;;;;;;;;;;;;;;;1040734;28;1739;-52
2022/07/20 00:38:21;;;;;;;;;;;;;;;;;;1041343;28;3885;-51
2022/07/20 00:38:51;;;;;;;;;;;;;;;;;;1040369;28;1587;-53
2022/07/20 00:39:21;;;;;;;;;;;;;;;;;;1041816;28;3865;-50
2022/07/20 00:39:51;;;;;;;;;;;;;;;;;;1039799;28;2289;-51
2022/07/20 00:40:22;;;;;;;;;;;;;;;;;;1041078;28;3806;-52
2022/07/20 00:40:52;;;;;;;;;;;;;;;;;;1041988;28;2729;-52
2022/07/20 00:41:22;;;;;;;;;;;;;;;;;;1042504;28;4410;-48
2022/07/20 00:41:53;;;;;;;;;;;;;;;;;;1037749;28;1716;-52
2022/07/20 00:42:23;;;;;;;;;;;;;;;;;;1038209;28;3788;-51
2022/07/20 00:42:53;;;;;;;;;;;;;;;;;;1038071;28;1685;-51
2022/07/20 00:43:23;;;;;;;;;;;;;;;;;;1037682;28;4386;-53
2022/07/20 00:44:07;;;;;;;;;;;;;;;;;;1036729;28;1785;-48
2022/07/20 00:44:43;;;;;;;;;;;;;;;;;;1037724;28;3773;-49
2022/07/20 00:45:14;;;;;;;;;;;;;;;;;;1039768;28;3975;-52
2022/07/20 00:45:44;;;;;;;;;;;;;;;;;;1039381;28;1614;-51
2022/07/20 00:46:15;;;;;;;;;;;;;;;;;;1038020;28;3898;-52
2022/07/20 00:46:46;;;;;;;;;;;;;;;;;;1033869;28;1579;-51
2022/07/20 00:47:16;;;;;;;;;;;;;;;;;;1033685;28;4210;-49
2022/07/20 00:47:48;;;;;;;;;;;;;;;;;;1036723;28;1602;-53
2022/07/20 00:48:18;;;;;;;;;;;;;;;;;;1036799;28;4912;-53
2022/07/20 00:48:48;;;;;;;;;;;;;;;;;;1043156;28;1622;-50
2022/07/20 00:49:18;;;;;;;;;;;;;;;;;;1041585;28;4223;-50
2022/07/20 00:49:49;;;;;;;;;;;;;;;;;;1042466;28;1732;-49
2022/07/20 00:50:19;;;;;;;;;;;;;;;;;;1041374;28;4080;-53
2022/07/20 00:50:49;;;;;;;;;;;;;;;;;;1042795;28;1796;-53
2022/07/20 00:51:19;;;;;;;;;;;;;;;;;;1041081;28;4233;-51
2022/07/20 00:51:50;;;;;;;;;;;;;;;;;;1042616;28;1622;-52
2022/07/20 00:52:20;;;;;;;;;;;;;;;;;;1045168;28;4061;-51
2022/07/20 00:52:50;;;;;;;;;;;;;;;;;;1046720;28;1704;-52
2022/07/20 00:53:21;;;;;;;;;;;;;;;;;;1045436;28;3824;-54
2022/07/20 00:53:52;;;;;;;;;;;;;;;;;;1041071;28;1292;-50
2022/07/20 00:54:23;;;;;;;;;;;;;;;;;;1041842;28;3935;-51
2022/07/20 00:54:54;;;;;;;;;;;;;;;;;;1042756;28;1587;-53
2022/07/20 00:55:24;;;;;;;;;;;;;;;;;;1041331;28;3918;-48
2022/07/20 00:55:54;;;;;;;;;;;;;;;;;;1042419;28;1665;-53
2022/07/20 00:56:25;;;;;;;;;;;;;;;;;;1043965;28;4182;-53
2022/07/20 00:56:55;;;;;;;;;;;;;;;;;;1045378;28;1524;-51
2022/07/20 00:57:26;;;;;;;;;;;;;;;;;;1040644;28;3987;-50
2022/07/20 00:57:56;;;;;;;;;;;;;;;;;;1041977;28;1706;-51
2022/07/20 00:58:26;;;;;;;;;;;;;;;;;;1041049;28;4089;-50
2022/07/20 00:58:56;;;;;;;;;;;;;;;;;;1042071;28;1752;-50
2022/07/20 00:59:27;;;;;;;;;;;;;;;;;;1040830;28;3810;-53
2022/07/20 00:59:57;;;;;;;;;;;;;;;;;;1040698;28;1873;-50
2022/07/20 01:00:28;;;;;;;;;;;;;;;;;;1040147;28;4012;-55
2022/07/20 01:00:58;;;;;;;;;;;;;;;;;;1041720;28;1773;-48
2022/07/20 01:01:30;;;;;;;;;;;;;;;;;;1041230;28;4416;-50
2022/07/20 01:02:01;;;;;;;;;;;;;;;;;;1040744;28;1660;-54
2022/07/20 01:02:39;;;;;;;;;;;;;;;;;;1040748;28;3746;-52
2022/07/20 01:03:15;;;;;;;;;;;;;;;;;;1041319;28;4408;-50
2022/07/20 01:03:45;;;;;;;;;;;;;;;;;;1040690;28;1585;-50
2022/07/20 01:04:16;;;;;;;;;;;;;;;;;;1041762;28;4105;-51
2022/07/20 01:04:46;;;;;;;;;;;;;;;;;;1041567;28;1781;-49
2022/07/20 01:05:16;;;;;;;;;;;;;;;;;;1042270;28;3808;-53
2022/07/20 01:05:47;;;;;;;;;;;;;;;;;;1041786;28;1647;-54
2022/07/20 01:06:18;;;;;;;;;;;;;;;;;;1041616;28;4242;-51
2022/07/20 01:06:49;;;;;;;;;;;;;;;;;;1045727;28;1337;-50
2022/07/20 01:07:25;;;;;;;;;;;;;;;;;;1045669;28;4032;-51
2022/07/20 01:07:56;;;;;;;;;;;;;;;;;;1046531;28;1784;-50
2022/07/20 01:08:28;;;;;;;;;;;;;;;;;;1044280;28;3790;-51
2022/07/20 01:08:58;;;;;;;;;;;;;;;;;;1041131;28;1662;-54
2022/07/20 01:09:28;;;;;;;;;;;;;;;;;;1041442;28;3828;-50
2022/07/20 01:09:59;;;;;;;;;;;;;;;;;;1040941;28;1613;-51
2022/07/20 01:10:30;;;;;;;;;;;;;;;;;;1040341;28;3773;-49
2022/07/20 01:11:01;;;;;;;;;;;;;;;;;;1041053;28;1584;-51
2022/07/20 01:11:32;;;;;;;;;;;;;;;;;;1041392;28;3754;-53
2022/07/20 01:12:03;;;;;;;;;;;;;;;;;;1041205;28;4039;-54
2022/07/20 01:12:33;;;;;;;;;;;;;;;;;;1039765;28;1622;-50
2022/07/20 01:13:03;;;;;;;;;;;;;;;;;;1041415;28;4185;-49
2022/07/20 01:13:34;;;;;;;;;;;;;;;;;;1040239;28;1806;-51
2022/07/20 01:14:06;;;;;;;;;;;;;;;;;;1040006;28;3951;-50
2022/07/20 01:14:37;;;;;;;;;;;;;;;;;;1039881;28;3320;-55
2022/07/20 01:15:07;;;;;;;;;;;;;;;;;;1040276;28;4058;-51
2022/07/20 01:15:37;;;;;;;;;;;;;;;;;;1043839;28;1910;-53
2022/07/20 01:16:08;;;;;;;;;;;;;;;;;;1043596;28;3831;-51
2022/07/20 01:16:38;;;;;;;;;;;;;;;;;;1041408;28;1838;-50
2022/07/20 01:17:09;;;;;;;;;;;;;;;;;;1040291;28;3895;-51
2022/07/20 01:17:39;;;;;;;;;;;;;;;;;;1041645;28;1695;-50
2022/07/20 01:18:09;;;;;;;;;;;;;;;;;;1041250;28;3993;-52
2022/07/20 01:18:40;;;;;;;;;;;;;;;;;;1040798;28;1682;-48
2022/07/20 01:19:10;;;;;;;;;;;;;;;;;;1040926;28;4246;-52
2022/07/20 01:19:54;;;;;;;;;;;;;;;;;;1041324;28;1424;-52
2022/07/20 01:20:32;;;;;;;;;;;;;;;;;;1041786;28;3805;-51
2022/07/20 01:21:06;;;;;;;;;;;;;;;;;;1041887;28;4056;-50
2022/07/20 01:21:40;;;;;;;;;;;;;;;;;;1041828;28;1697;-53
2022/07/20 01:22:11;;;;;;;;;;;;;;;;;;1042683;28;3927;-48
2022/07/20 01:22:42;;;;;;;;;;;;;;;;;;1041972;28;1569;-54
2022/07/20 01:23:13;;;;;;;;;;;;;;;;;;1041031;28;3898;-50
2022/07/20 01:23:43;;;;;;;;;;;;;;;;;;1041927;28;1698;-53
2022/07/20 01:24:13;;;;;;;;;;;;;;;;;;1041360;28;4575;-50
2022/07/20 01:24:44;;;;;;;;;;;;;;;;;;1046688;28;1805;-51
2022/07/20 01:25:14;;;;;;;;;;;;;;;;;;1045128;28;3905;-51
2022/07/20 01:25:44;;;;;;;;;;;;;;;;;;1045382;28;1653;-52
2022/07/20 01:26:15;;;;;;;;;;;;;;;;;;1043976;28;3945;-48
2022/07/20 01:26:46;;;;;;;;;;;;;;;;;;1045376;28;1590;-53
2022/07/20 01:27:16;;;;;;;;;;;;;;;;;;1044336;28;3826;-51
2022/07/20 01:27:46;;;;;;;;;;;;;;;;;;1045445;28;1369;-51
2022/07/20 01:28:17;;;;;;;;;;;;;;;;;;1045181;28;4587;-50
2022/07/20 01:28:47;;;;;;;;;;;;;;;;;;1045569;28;1583;-49
2022/07/20 01:29:17;;;;;;;;;;;;;;;;;;1040167;28;4300;-53
2022/07/20 01:29:48;;;;;;;;;;;;;;;;;;1041122;28;1650;-53
2022/07/20 01:30:18;;;;;;;;;;;;;;;;;;1039936;28;3998;-53
2022/07/20 01:30:48;;;;;;;;;;;;;;;;;;1039471;28;1658;-52
2022/07/20 01:31:19;;;;;;;;;;;;;;;;;;1045056;28;3850;-53
2022/07/20 01:31:56;;;;;;;;;;;;;;;;;;1044897;28;1925;-49
2022/07/20 01:32:26;;;;;;;;;;;;;;;;;;1045042;28;3823;-51
2022/07/20 01:32:56;;;;;;;;;;;;;;;;;;1044866;28;1403;-53
2022/07/20 01:33:26;;;;;;;;;;;;;;;;;;1044598;28;3776;-51
2022/07/20 01:33:57;;;;;;;;;;;;;;;;;;1045311;28;2080;-52
2022/07/20 01:34:27;;;;;;;;;;;;;;;;;;1045480;28;3923;-51
2022/07/20 01:34:57;;;;;;;;;;;;;;;;;;1041907;28;2126;-47
2022/07/20 01:35:27;;;;;;;;;;;;;;;;;;1041531;28;3856;-53
2022/07/20 01:35:58;;;;;;;;;;;;;;;;;;1037501;28;1719;-53
2022/07/20 01:36:28;;;;;;;;;;;;;;;;;;1037287;28;4241;-53
2022/07/20 01:36:58;;;;;;;;;;;;;;;;;;1041775;28;1579;-51
2022/07/20 01:37:29;;;;;;;;;;;;;;;;;;1041925;28;3778;-53
2022/07/20 01:38:00;;;;;;;;;;;;;;;;;;1044393;28;1742;-54
2022/07/20 01:38:30;;;;;;;;;;;;;;;;;;1044096;28;3839;-51
2022/07/20 01:39:00;;;;;;;;;;;;;;;;;;1045657;28;1654;-49
2022/07/20 01:39:31;;;;;;;;;;;;;;;;;;1040093;28;3691;-49
2022/07/20 01:40:01;;;;;;;;;;;;;;;;;;1039057;28;4153;-50
2022/07/20 01:40:32;;;;;;;;;;;;;;;;;;1040237;28;4088;-53
2022/07/20 01:41:02;;;;;;;;;;;;;;;;;;1040339;28;4021;-50
2022/07/20 01:41:32;;;;;;;;;;;;;;;;;;1045226;28;2168;-50
2022/07/20 01:42:02;;;;;;;;;;;;;;;;;;1044623;28;4223;-52
2022/07/20 01:42:33;;;;;;;;;;;;;;;;;;1044661;28;1748;-49
2022/07/20 01:43:03;;;;;;;;;;;;;;;;;;1039850;28;4263;-50
2022/07/20 01:43:33;;;;;;;;;;;;;;;;;;1040590;28;1329;-52
2022/07/20 01:44:04;;;;;;;;;;;;;;;;;;1039802;28;4455;-50
2022/07/20 01:44:34;;;;;;;;;;;;;;;;;;1040090;28;1459;-49
2022/07/20 01:45:05;;;;;;;;;;;;;;;;;;1045684;28;3798;-51
2022/07/20 01:45:35;;;;;;;;;;;;;;;;;;1046292;28;1582;-50
2022/07/20 01:46:05;;;;;;;;;;;;;;;;;;1045670;28;3978;-50
2022/07/20 01:46:36;;;;;;;;;;;;;;;;;;1046281;28;1543;-52
2022/07/20 01:47:06;;;;;;;;;;;;;;;;;;1045727;28;4085;-52
2022/07/20 01:47:36;;;;;;;;;;;;;;;;;;1046394;28;1661;-52
2022/07/20 01:48:06;;;;;;;;;;;;;;;;;;1045887;28;3827;-49
2022/07/20 01:48:37;;;;;;;;;;;;;;;;;;1040988;28;1408;-49
2022/07/20 01:49:07;;;;;;;;;;;;;;;;;;1041059;28;3803;-51
2022/07/20 01:49:38;;;;;;;;;;;;;;;;;;1041248;28;1692;-51
2022/07/20 01:50:08;;;;;;;;;;;;;;;;;;1040166;28;4012;-52
2022/07/20 01:50:39;;;;;;;;;;;;;;;;;;1042381;28;1864;-51
2022/07/20 01:51:09;;;;;;;;;;;;;;;;;;1042563;28;4181;-54
2022/07/20 01:51:39;;;;;;;;;;;;;;;;;;1042544;28;1588;-53
2022/07/20 01:52:10;;;;;;;;;;;;;;;;;;1042391;28;4151;-49
2022/07/20 01:52:40;;;;;;;;;;;;;;;;;;1045631;28;1685;-52
2022/07/20 01:53:10;;;;;;;;;;;;;;;;;;1045690;28;4091;-53
2022/07/20 01:53:40;;;;;;;;;;;;;;;;;;1046000;28;1583;-53
2022/07/20 01:54:11;;;;;;;;;;;;;;;;;;1043055;28;3908;-50
2022/07/20 01:54:41;;;;;;;;;;;;;;;;;;1042801;28;1843;-51
2022/07/20 01:55:12;;;;;;;;;;;;;;;;;;1042679;28;4034;-53
2022/07/20 01:55:42;;;;;;;;;;;;;;;;;;1038618;28;1973;-53
2022/07/20 01:56:12;;;;;;;;;;;;;;;;;;1042527;28;3970;-51
2022/07/20 01:56:42;;;;;;;;;;;;;;;;;;1040286;28;1620;-54
2022/07/20 01:57:13;;;;;;;;;;;;;;;;;;1042255;28;4058;-52
2022/07/20 01:57:43;;;;;;;;;;;;;;;;;;1042715;28;1425;-52
2022/07/20 01:58:13;;;;;;;;;;;;;;;;;;1042788;28;4410;-49
2022/07/20 01:58:44;;;;;;;;;;;;;;;;;;1038474;28;1157;-52
2022/07/20 01:59:14;;;;;;;;;;;;;;;;;;1038307;28;3816;-52
2022/07/20 01:59:44;;;;;;;;;;;;;;;;;;1042555;28;1671;-51
2022/07/20 02:00:15;;;;;;;;;;;;;;;;;;1037977;28;4386;-52
2022/07/20 02:00:46;;;;;;;;;;;;;;;;;;1043171;28;1788;-53
2022/07/20 02:01:16;;;;;;;;;;;;;;;;;;1042952;28;4242;-51
2022/07/20 02:01:46;;;;;;;;;;;;;;;;;;1042800;28;1408;-50
2022/07/20 02:02:17;;;;;;;;;;;;;;;;;;1046140;28;4428;-53
2022/07/20 02:02:47;;;;;;;;;;;;;;;;;;1046445;28;1584;-54
2022/07/20 02:03:18;;;;;;;;;;;;;;;;;;1045208;28;3968;-51
2022/07/20 02:03:48;;;;;;;;;;;;;;;;;;1045192;28;1607;-50
2022/07/20 02:04:18;;;;;;;;;;;;;;;;;;1045487;28;3895;-53
2022/07/20 02:04:48;;;;;;;;;;;;;;;;;;1046246;28;1574;-54
2022/07/20 02:05:19;;;;;;;;;;;;;;;;;;1045330;28;4056;-51
2022/07/20 02:05:49;;;;;;;;;;;;;;;;;;1047334;28;1585;-49
2022/07/20 02:06:19;;;;;;;;;;;;;;;;;;1041859;28;4485;-49
2022/07/20 02:06:50;;;;;;;;;;;;;;;;;;1043407;28;1620;-52
2022/07/20 02:07:20;;;;;;;;;;;;;;;;;;1041886;28;4311;-52
2022/07/20 02:07:50;;;;;;;;;;;;;;;;;;1039128;28;1305;-48
2022/07/20 02:08:25;;;;;;;;;;;;;;;;;;1040057;28;4445;-52
2022/07/20 02:08:55;;;;;;;;;;;;;;;;;;1040654;28;1574;-50
2022/07/20 02:09:25;;;;;;;;;;;;;;;;;;1041120;28;4237;-50
2022/07/20 02:09:55;;;;;;;;;;;;;;;;;;1045419;28;1376;-54
2022/07/20 02:10:26;;;;;;;;;;;;;;;;;;1045057;28;4023;-53
2022/07/20 02:10:56;;;;;;;;;;;;;;;;;;1045625;28;1700;-51
2022/07/20 02:11:27;;;;;;;;;;;;;;;;;;1041844;28;3849;-53
2022/07/20 02:11:57;;;;;;;;;;;;;;;;;;1042780;28;1811;-50
2022/07/20 02:12:28;;;;;;;;;;;;;;;;;;1042624;28;3845;-50
2022/07/20 02:12:58;;;;;;;;;;;;;;;;;;1042631;28;1788;-49
2022/07/20 02:13:28;;;;;;;;;;;;;;;;;;1045410;28;3825;-51
2022/07/20 02:13:58;;;;;;;;;;;;;;;;;;1046110;28;1702;-49
2022/07/20 02:14:29;;;;;;;;;;;;;;;;;;1045581;28;4036;-50
2022/07/20 02:14:59;;;;;;;;;;;;;;;;;;1045710;28;2969;-50
2022/07/20 02:16:19;;;;;;;;;;;;;;;;;;1046665;28;4060;-52
2022/07/20 02:16:49;;;;;;;;;;;;;;;;;;1045470;28;1610;-54
2022/07/20 02:17:19;;;;;;;;;;;;;;;;;;1044735;28;4091;-51
2022/07/20 02:17:50;;;;;;;;;;;;;;;;;;1045330;28;1637;-49
2022/07/20 02:18:21;;;;;;;;;;;;;;;;;;1046004;28;4044;-51
2022/07/20 02:18:52;;;;;;;;;;;;;;;;;;1040870;28;1715;-53
2022/07/20 02:19:22;;;;;;;;;;;;;;;;;;1040817;28;3867;-55
2022/07/20 02:20:06;;;;;;;;;;;;;;;;;;1036765;28;1477;-49
2022/07/20 02:20:43;;;;;;;;;;;;;;;;;;1040945;28;3857;-53
2022/07/20 02:21:15;;;;;;;;;;;;;;;;;;1038432;28;3905;-48
2022/07/20 02:21:45;;;;;;;;;;;;;;;;;;1038115;28;1547;-50
2022/07/20 02:22:16;;;;;;;;;;;;;;;;;;1037993;28;4054;-51
2022/07/20 02:22:46;;;;;;;;;;;;;;;;;;1038739;28;1764;-54
2022/07/20 02:23:16;;;;;;;;;;;;;;;;;;1036775;28;4051;-52
2022/07/20 02:23:47;;;;;;;;;;;;;;;;;;1037235;28;1760;-51
2022/07/20 02:24:17;;;;;;;;;;;;;;;;;;1036281;28;4472;-50
2022/07/20 02:24:47;;;;;;;;;;;;;;;;;;1036961;28;1602;-55
2022/07/20 02:25:18;;;;;;;;;;;;;;;;;;1038484;28;5372;-48
2022/07/20 02:25:48;;;;;;;;;;;;;;;;;;1039368;28;1679;-53
2022/07/20 02:26:18;;;;;;;;;;;;;;;;;;1037824;28;3992;-52
2022/07/20 02:26:49;;;;;;;;;;;;;;;;;;1039311;28;1412;-53
2022/07/20 02:27:19;;;;;;;;;;;;;;;;;;1036143;28;3829;-55
2022/07/20 02:27:49;;;;;;;;;;;;;;;;;;1037280;28;1349;-50
2022/07/20 02:28:20;;;;;;;;;;;;;;;;;;1035938;28;4225;-51
2022/07/20 02:28:50;;;;;;;;;;;;;;;;;;1037514;28;1564;-51
2022/07/20 02:29:20;;;;;;;;;;;;;;;;;;1038059;28;4040;-51
2022/07/20 02:29:50;;;;;;;;;;;;;;;;;;1039067;28;1538;-55
2022/07/20 02:30:21;;;;;;;;;;;;;;;;;;1038043;28;4145;-52
2022/07/20 02:30:51;;;;;;;;;;;;;;;;;;1039233;28;1650;-51
2022/07/20 02:31:23;;;;;;;;;;;;;;;;;;1037983;28;3850;-51
2022/07/20 02:31:59;;;;;;;;;;;;;;;;;;1037010;28;1622;-54
2022/07/20 02:32:30;;;;;;;;;;;;;;;;;;1036382;28;3874;-52
2022/07/20 02:33:01;;;;;;;;;;;;;;;;;;1037238;28;1673;-51
2022/07/20 02:33:31;;;;;;;;;;;;;;;;;;1037902;28;3807;-50
2022/07/20 02:34:02;;;;;;;;;;;;;;;;;;1042139;28;4393;-53
2022/07/20 02:34:32;;;;;;;;;;;;;;;;;;1042423;28;1775;-51
2022/07/20 02:35:02;;;;;;;;;;;;;;;;;;1038705;28;3874;-54
2022/07/20 02:35:32;;;;;;;;;;;;;;;;;;1038607;28;1938;-54
2022/07/20 02:36:03;;;;;;;;;;;;;;;;;;1038574;28;4160;-49
2022/07/20 02:36:33;;;;;;;;;;;;;;;;;;1038761;28;1535;-53
2022/07/20 02:37:04;;;;;;;;;;;;;;;;;;1037692;28;4103;-52
2022/07/20 02:37:34;;;;;;;;;;;;;;;;;;1038589;28;1686;-53
2022/07/20 02:38:04;;;;;;;;;;;;;;;;;;1037624;28;3793;-52
2022/07/20 02:38:34;;;;;;;;;;;;;;;;;;1038069;28;2311;-53
2022/07/20 02:39:05;;;;;;;;;;;;;;;;;;1038491;28;4047;-50
2022/07/20 02:39:35;;;;;;;;;;;;;;;;;;1038570;28;2783;-53
2022/07/20 02:40:06;;;;;;;;;;;;;;;;;;1038328;28;4233;-50
2022/07/20 02:40:36;;;;;;;;;;;;;;;;;;1038559;28;1290;-49
2022/07/20 02:41:06;;;;;;;;;;;;;;;;;;1038599;28;3880;-53
2022/07/20 02:41:36;;;;;;;;;;;;;;;;;;1038797;28;1562;-50
2022/07/20 02:42:08;;;;;;;;;;;;;;;;;;1037072;28;4105;-53
2022/07/20 02:42:38;;;;;;;;;;;;;;;;;;1036262;28;1793;-50
2022/07/20 02:43:08;;;;;;;;;;;;;;;;;;1036791;28;4075;-48
2022/07/20 02:43:38;;;;;;;;;;;;;;;;;;1036786;28;1144;-50
2022/07/20 02:44:09;;;;;;;;;;;;;;;;;;1036144;28;4061;-50
2022/07/20 02:44:39;;;;;;;;;;;;;;;;;;1037212;28;1872;-50
2022/07/20 02:45:09;;;;;;;;;;;;;;;;;;1032466;28;3946;-49
2022/07/20 02:45:40;;;;;;;;;;;;;;;;;;1036389;28;1833;-51
2022/07/20 02:46:10;;;;;;;;;;;;;;;;;;1038030;28;4393;-52
2022/07/20 02:46:40;;;;;;;;;;;;;;;;;;1038660;28;1695;-49
2022/07/20 02:47:11;;;;;;;;;;;;;;;;;;1037977;28;4059;-54
2022/07/20 02:47:42;;;;;;;;;;;;;;;;;;1038690;28;1535;-52
2022/07/20 02:48:12;;;;;;;;;;;;;;;;;;1038844;28;3893;-53
2022/07/20 02:48:43;;;;;;;;;;;;;;;;;;1038552;28;1779;-54
2022/07/20 02:49:13;;;;;;;;;;;;;;;;;;1036798;28;4055;-52
2022/07/20 02:49:43;;;;;;;;;;;;;;;;;;1036995;28;1682;-54
2022/07/20 02:50:14;;;;;;;;;;;;;;;;;;1037576;28;4209;-50
2022/07/20 02:50:44;;;;;;;;;;;;;;;;;;1040517;28;1727;-51
2022/07/20 02:51:15;;;;;;;;;;;;;;;;;;1037835;28;3873;-52
2022/07/20 02:51:45;;;;;;;;;;;;;;;;;;1038945;28;1601;-52
2022/07/20 02:52:15;;;;;;;;;;;;;;;;;;1038380;28;4144;-52
2022/07/20 02:52:45;;;;;;;;;;;;;;;;;;1039124;28;1586;-49
2022/07/20 02:53:16;;;;;;;;;;;;;;;;;;1038152;28;4095;-52
2022/07/20 02:53:46;;;;;;;;;;;;;;;;;;1038991;28;1572;-52
2022/07/20 02:54:16;;;;;;;;;;;;;;;;;;1037946;28;3926;-56
2022/07/20 02:54:47;;;;;;;;;;;;;;;;;;1038556;28;1662;-52
2022/07/20 02:55:17;;;;;;;;;;;;;;;;;;1037779;28;4035;-53
2022/07/20 02:55:47;;;;;;;;;;;;;;;;;;1038002;28;1668;-53
2022/07/20 02:56:17;;;;;;;;;;;;;;;;;;1037704;28;3891;-51
2022/07/20 02:56:48;;;;;;;;;;;;;;;;;;1038887;28;1650;-51
2022/07/20 02:57:18;;;;;;;;;;;;;;;;;;1038284;28;4231;-53
2022/07/20 02:57:48;;;;;;;;;;;;;;;;;;1039095;28;1902;-51
2022/07/20 02:58:18;;;;;;;;;;;;;;;;;;1038307;28;3814;-51
2022/07/20 02:58:49;;;;;;;;;;;;;;;;;;1038662;28;1615;-49
2022/07/20 02:59:19;;;;;;;;;;;;;;;;;;1038163;28;3927;-50
2022/07/20 02:59:49;;;;;;;;;;;;;;;;;;1038958;28;1704;-50
2022/07/20 03:00:20;;;;;;;;;;;;;;;;;;1037781;28;3934;-53
2022/07/20 03:00:50;;;;;;;;;;;;;;;;;;1038514;28;1396;-53
2022/07/20 03:01:20;;;;;;;;;;;;;;;;;;1038006;28;3791;-51
2022/07/20 03:01:51;;;;;;;;;;;;;;;;;;1038654;28;1729;-53
2022/07/20 03:02:21;;;;;;;;;;;;;;;;;;1041958;28;3777;-52
2022/07/20 03:02:52;;;;;;;;;;;;;;;;;;1039252;28;1771;-53
2022/07/20 03:03:22;;;;;;;;;;;;;;;;;;1038297;28;4089;-51
2022/07/20 03:03:52;;;;;;;;;;;;;;;;;;1037955;28;1663;-50
2022/07/20 03:04:23;;;;;;;;;;;;;;;;;;1033836;28;4268;-49
2022/07/20 03:04:53;;;;;;;;;;;;;;;;;;1034043;28;1748;-51
2022/07/20 03:05:23;;;;;;;;;;;;;;;;;;1033464;28;3934;-51
2022/07/20 03:05:53;;;;;;;;;;;;;;;;;;1032932;28;1613;-52
2022/07/20 03:06:24;;;;;;;;;;;;;;;;;;1038327;28;4067;-50
2022/07/20 03:06:54;;;;;;;;;;;;;;;;;;1037948;28;1736;-50
2022/07/20 03:07:24;;;;;;;;;;;;;;;;;;1038103;28;3787;-48
2022/07/20 03:07:55;;;;;;;;;;;;;;;;;;1037813;28;1571;-51
2022/07/20 03:08:25;;;;;;;;;;;;;;;;;;1036722;28;4070;-54
2022/07/20 03:08:55;;;;;;;;;;;;;;;;;;1038037;28;1378;-52
2022/07/20 03:09:25;;;;;;;;;;;;;;;;;;1038772;28;4241;-49
2022/07/20 03:09:56;;;;;;;;;;;;;;;;;;1036709;28;1818;-53
2022/07/20 03:10:26;;;;;;;;;;;;;;;;;;1036721;28;4014;-52
2022/07/20 03:10:57;;;;;;;;;;;;;;;;;;1037043;28;1394;-50
2022/07/20 03:11:27;;;;;;;;;;;;;;;;;;1034314;28;3975;-50
2022/07/20 03:11:57;;;;;;;;;;;;;;;;;;1038262;28;1949;-50
2022/07/20 03:12:27;;;;;;;;;;;;;;;;;;1038343;28;3789;-51
2022/07/20 03:12:58;;;;;;;;;;;;;;;;;;1037959;28;1626;-51
2022/07/20 03:13:28;;;;;;;;;;;;;;;;;;1041902;28;3869;-51
2022/07/20 03:13:58;;;;;;;;;;;;;;;;;;1041851;28;1667;-50
2022/07/20 03:14:28;;;;;;;;;;;;;;;;;;1042483;28;3938;-50
2022/07/20 03:14:59;;;;;;;;;;;;;;;;;;1042574;28;1879;-52
2022/07/20 03:15:29;;;;;;;;;;;;;;;;;;1032465;28;4074;-54
2022/07/20 03:15:59;;;;;;;;;;;;;;;;;;1032272;28;1592;-51
2022/07/20 03:16:29;;;;;;;;;;;;;;;;;;1033426;28;4075;-53
2022/07/20 03:17:00;;;;;;;;;;;;;;;;;;1032970;28;1867;-52
2022/07/20 03:17:30;;;;;;;;;;;;;;;;;;1038784;28;3832;-54
2022/07/20 03:18:00;;;;;;;;;;;;;;;;;;1038777;28;2094;-48
2022/07/20 03:18:31;;;;;;;;;;;;;;;;;;1037901;28;4344;-51
2022/07/20 03:19:01;;;;;;;;;;;;;;;;;;1038619;28;1853;-50
2022/07/20 03:19:31;;;;;;;;;;;;;;;;;;1038176;28;3737;-52
2022/07/20 03:20:16;;;;;;;;;;;;;;;;;;1039133;28;4218;-49
2022/07/20 03:20:53;;;;;;;;;;;;;;;;;;1041125;28;1660;-49
2022/07/20 03:21:25;;;;;;;;;;;;;;;;;;1041632;28;4584;-52
2022/07/20 03:21:55;;;;;;;;;;;;;;;;;;1040436;28;1469;-51
2022/07/20 03:22:25;;;;;;;;;;;;;;;;;;1040639;28;3843;-50
2022/07/20 03:22:56;;;;;;;;;;;;;;;;;;1040844;28;1654;-51
2022/07/20 03:23:26;;;;;;;;;;;;;;;;;;1042056;28;3991;-49
2022/07/20 03:23:57;;;;;;;;;;;;;;;;;;1041624;28;1705;-53
2022/07/20 03:24:27;;;;;;;;;;;;;;;;;;1040725;28;3887;-51
2022/07/20 03:24:57;;;;;;;;;;;;;;;;;;1041334;28;1698;-52
2022/07/20 03:25:35;;;;;;;;;;;;;;;;;;1041212;28;3864;-49
2022/07/20 03:26:05;;;;;;;;;;;;;;;;;;1041399;28;3835;-52
2022/07/20 03:26:35;;;;;;;;;;;;;;;;;;1040456;28;2218;-50
2022/07/20 03:27:05;;;;;;;;;;;;;;;;;;1040241;28;4079;-51
2022/07/20 03:27:36;;;;;;;;;;;;;;;;;;1042197;28;1595;-50
2022/07/20 03:28:06;;;;;;;;;;;;;;;;;;1040634;28;4137;-51
2022/07/20 03:28:37;;;;;;;;;;;;;;;;;;1041665;28;1607;-50
2022/07/20 03:29:07;;;;;;;;;;;;;;;;;;1040816;28;4271;-49
2022/07/20 03:29:37;;;;;;;;;;;;;;;;;;1042067;28;1827;-52
2022/07/20 03:30:08;;;;;;;;;;;;;;;;;;1040829;28;4412;-50
2022/07/20 03:30:38;;;;;;;;;;;;;;;;;;1040803;28;1905;-49
2022/07/20 03:31:08;;;;;;;;;;;;;;;;;;1040571;28;4525;-54
2022/07/20 03:31:39;;;;;;;;;;;;;;;;;;1040165;28;1642;-50
2022/07/20 03:32:09;;;;;;;;;;;;;;;;;;1040709;28;4213;-52
2022/07/20 03:32:39;;;;;;;;;;;;;;;;;;1041124;28;1575;-48
2022/07/20 03:33:09;;;;;;;;;;;;;;;;;;1041757;28;4162;-52
2022/07/20 03:33:40;;;;;;;;;;;;;;;;;;1041676;28;1741;-51
2022/07/20 03:34:10;;;;;;;;;;;;;;;;;;1041538;28;4545;-49
2022/07/20 03:34:40;;;;;;;;;;;;;;;;;;1040638;28;1780;-52
2022/07/20 03:35:10;;;;;;;;;;;;;;;;;;1041686;28;3920;-51
2022/07/20 03:35:41;;;;;;;;;;;;;;;;;;1041699;28;1914;-49
2022/07/20 03:36:11;;;;;;;;;;;;;;;;;;1041430;28;3891;-51
2022/07/20 03:36:41;;;;;;;;;;;;;;;;;;1041173;28;1612;-51
2022/07/20 03:37:12;;;;;;;;;;;;;;;;;;1040521;28;4000;-51